Time;durP1;ratioP1;P1;durP2;ratioP2;P2;SDS_P1;SDS_P2;PMS_P1;PMS_P2;Temp;Humidity;BMP_temperature;BMP_pressure;BME280_temperature;BME280_humidity;BME280_pressure;Samples;Min_cycle;Max_cycle;Signal;HPM_P1;HPM_P2
2022/01/05 00:02:04;;;;;;;0.30;0.30;;;;;;;6.09;100.00;95012.16;5134287;27;20478;-53
2022/01/05 00:04:33;;;;;;;0.73;0.73;;;;;;;5.60;100.00;94953.50;5135094;27;20448;-53
2022/01/05 00:07:03;;;;;;;0.73;0.73;;;;;;;5.42;100.00;95022.94;5134735;27;20435;-53
2022/01/05 00:09:31;;;;;;;0.43;0.40;;;;;;;5.61;100.00;95037.38;5135120;27;20430;-53
2022/01/05 00:12:01;;;;;;;0.93;0.93;;;;;;;5.75;100.00;95032.53;5135056;27;20410;-53
2022/01/05 00:14:29;;;;;;;0.30;0.20;;;;;;;5.92;100.00;95021.97;5134753;27;20491;-53
2022/01/05 00:16:58;;;;;;;1.03;0.53;;;;;;;5.70;100.00;95025.38;5134510;27;20471;-53
2022/01/05 00:19:26;;;;;;;0.40;0.30;;;;;;;5.86;100.00;95023.75;5135244;27;20906;-53
2022/01/05 00:21:55;;;;;;;0.40;0.40;;;;;;;5.96;100.00;95020.44;5134728;27;20422;-53
2022/01/05 00:24:25;;;;;;;1.13;1.13;;;;;;;6.55;100.00;95027.31;5134836;27;20462;-53
2022/01/05 00:26:53;;;;;;;0.47;0.40;;;;;;;6.06;100.00;95031.84;5134151;27;20424;-53
2022/01/05 00:29:22;;;;;;;0.70;0.70;;;;;;;5.71;100.00;95034.06;5134770;27;20474;-53
2022/01/05 00:31:51;;;;;;;2.53;1.43;;;;;;;6.33;100.00;95018.69;5133811;27;20435;-53
2022/01/05 00:34:19;;;;;;;0.63;0.60;;;;;;;6.47;100.00;95013.81;5134642;27;20518;-53
2022/01/05 00:36:48;;;;;;;0.43;0.40;;;;;;;6.16;100.00;94947.75;5134663;27;20466;-53
2022/01/05 00:39:16;;;;;;;0.50;0.50;;;;;;;6.44;100.00;94988.00;5134426;27;20426;-53
2022/01/05 00:41:46;;;;;;;0.40;0.30;;;;;;;6.51;100.00;95007.78;5134394;27;20456;-53
2022/01/05 00:44:14;;;;;;;0.33;0.33;;;;;;;6.08;100.00;94957.94;5133992;27;20473;-53
2022/01/05 00:46:43;;;;;;;0.30;0.30;;;;;;;6.57;100.00;94998.09;5134299;27;20810;-53
2022/01/05 00:49:12;;;;;;;0.40;0.30;;;;;;;6.61;100.00;94989.44;5134539;27;20474;-53
2022/01/05 00:51:40;;;;;;;0.60;0.60;;;;;;;6.31;100.00;94913.69;5134122;27;20470;-53
2022/01/05 00:54:09;;;;;;;0.30;0.20;;;;;;;6.60;100.00;94989.72;5133973;27;20441;-53
2022/01/05 00:56:37;;;;;;;0.40;0.30;;;;;;;6.88;100.00;94990.16;5134444;27;20519;-53
2022/01/05 00:59:07;;;;;;;0.50;0.50;;;;;;;6.75;100.00;94974.81;5134012;27;20418;-53
2022/01/05 01:01:36;;;;;;;0.50;0.50;;;;;;;6.83;100.00;94984.09;5134036;27;20497;-53
2022/01/05 01:04:05;;;;;;;0.40;0.40;;;;;;;6.79;100.00;94961.91;5134271;27;20863;-53
2022/01/05 01:06:34;;;;;;;0.67;0.67;;;;;;;6.84;100.00;94980.38;5133360;27;20475;-53
2022/01/05 01:09:02;;;;;;;0.50;0.50;;;;;;;6.70;100.00;94918.69;5133898;27;20931;-53
2022/01/05 01:11:32;;;;;;;0.87;0.87;;;;;;;6.85;100.00;94976.72;5133789;27;20438;-53
2022/01/05 01:14:00;;;;;;;0.30;0.20;;;;;;;5.67;100.00;94988.25;5134082;27;20445;-53
2022/01/05 01:16:30;;;;;;;0.40;0.27;;;;;;;5.88;100.00;94986.69;5133555;27;20494;-53
2022/01/05 01:18:59;;;;;;;0.30;0.20;;;;;;;6.10;100.00;94987.41;5133701;27;20525;-53
2022/01/05 01:21:27;;;;;;;2.40;1.90;;;;;;;4.89;100.00;94936.88;5133193;27;20457;-53
2022/01/05 01:23:56;;;;;;;4.43;1.03;;;;;;;4.65;100.00;95001.13;5133631;27;20423;-53
2022/01/05 01:26:26;;;;;;;2.30;2.03;;;;;;;4.35;100.00;94982.28;5133567;27;20975;-53
2022/01/05 01:28:55;;;;;;;1.33;1.33;;;;;;;3.89;100.00;94945.84;5133490;27;20434;-53
2022/01/05 01:31:25;;;;;;;2.43;2.33;;;;;;;4.32;100.00;94959.16;5133392;27;20427;-53
2022/01/05 01:33:55;;;;;;;18.23;1.33;;;;;;;4.80;100.00;94992.69;5133731;27;20421;-53
2022/01/05 01:36:24;;;;;;;0.30;0.20;;;;;;;5.14;100.00;94963.47;5133530;27;20431;-53
2022/01/05 01:38:52;;;;;;;0.40;0.40;;;;;;;5.44;100.00;94984.06;5133412;27;20452;-53
2022/01/05 01:41:21;;;;;;;1.53;1.43;;;;;;;5.43;100.00;94987.75;5133237;27;20466;-53
2022/01/05 01:43:49;;;;;;;0.63;0.63;;;;;;;5.64;100.00;94989.53;5133280;27;20515;-53
2022/01/05 01:46:18;;;;;;;0.73;0.73;;;;;;;5.67;100.00;94933.84;5132756;27;20458;-53
2022/01/05 01:48:47;;;;;;;0.80;0.80;;;;;;;5.35;100.00;94995.25;5133158;27;20458;-53
2022/01/05 01:51:18;;;;;;;0.90;0.90;;;;;;;5.58;100.00;94977.41;5133533;27;20556;-53
2022/01/05 01:53:46;;;;;;;0.63;0.63;;;;;;;5.47;100.00;94975.69;5132797;27;20423;-53
2022/01/05 01:56:15;;;;;;;1.37;1.37;;;;;;;5.49;100.00;94949.94;5132917;27;20430;-53
2022/01/05 01:58:48;;;;;;;0.30;0.20;;;;;;;6.02;100.00;94980.00;5132055;27;20497;-53
2022/01/05 02:01:17;;;;;;;0.40;0.40;;;;;;;5.88;100.00;94989.31;5132329;27;21028;-53
2022/01/05 02:03:46;;;;;;;1.17;1.17;;;;;;;4.84;100.00;94978.03;5132478;27;20766;-53
2022/01/05 02:06:16;;;;;;;1.10;1.10;;;;;;;5.26;100.00;94975.72;5132932;27;20492;-53
2022/01/05 02:08:44;;;;;;;1.07;1.07;;;;;;;4.53;100.00;94974.16;5132495;27;20462;-53
2022/01/05 02:11:15;;;;;;;0.40;0.40;;;;;;;4.95;100.00;94977.13;5132847;27;20466;-54
2022/01/05 02:13:43;;;;;;;0.83;0.83;;;;;;;5.04;100.00;94968.59;5132839;27;20430;-53
2022/01/05 02:16:13;;;;;;;0.40;0.30;;;;;;;5.36;100.00;94965.31;5132949;27;20434;-53
2022/01/05 02:19:00;;;;;;;2.20;2.10;;;;;;;5.66;100.00;94955.94;5132948;27;20997;-53
2022/01/05 02:21:31;;;;;;;0.67;0.67;;;;;;;4.92;100.00;94956.59;5133108;28;20500;-54
2022/01/05 02:24:00;;;;;;;1.20;1.10;;;;;;;5.47;100.00;94962.56;5132791;28;20461;-53
2022/01/05 02:26:29;;;;;;;2.27;2.20;;;;;;;5.69;100.00;94959.91;5132608;28;20450;-53
2022/01/05 02:28:58;;;;;;;0.40;0.40;;;;;;;5.69;100.00;94944.13;5131976;28;20423;-53
2022/01/05 02:31:26;;;;;;;1.80;1.03;;;;;;;6.00;100.00;94951.28;5132697;28;20970;-54
2022/01/05 02:33:55;;;;;;;1.10;1.10;;;;;;;5.90;100.00;94955.66;5132525;27;20426;-54
2022/01/05 02:36:24;;;;;;;0.50;0.50;;;;;;;6.01;100.00;94952.09;5132652;28;20454;-54
2022/01/05 02:38:54;;;;;;;0.40;0.30;;;;;;;5.89;100.00;94941.75;5132753;28;20551;-54
2022/01/05 02:41:23;;;;;;;0.73;0.73;;;;;;;5.40;100.00;94961.16;5132679;28;20419;-54
2022/01/05 02:43:52;;;;;;;0.70;0.70;;;;;;;5.55;100.00;94948.19;5132907;28;20427;-54
2022/01/05 02:46:23;;;;;;;1.20;0.50;;;;;;;5.46;100.00;94926.81;5132734;28;20849;-54
2022/01/05 02:48:53;;;;;;;0.77;0.40;;;;;;;5.76;100.00;94952.63;5132588;28;20481;-54
2022/01/05 02:51:22;;;;;;;0.63;0.63;;;;;;;5.99;100.00;94947.09;5132527;28;20492;-54
2022/01/05 02:53:53;;;;;;;0.37;0.33;;;;;;;6.01;100.00;94928.41;5132291;28;20427;-54
2022/01/05 02:56:21;;;;;;;0.30;0.30;;;;;;;6.12;100.00;94938.78;5132428;27;20427;-53
2022/01/05 02:58:50;;;;;;;0.47;0.37;;;;;;;6.02;100.00;94943.94;5131874;27;20478;-54
2022/01/05 03:01:38;;;;;;;0.50;0.50;;;;;;;6.01;100.00;94936.31;5132117;28;20561;-54
2022/01/05 03:04:07;;;;;;;0.30;0.30;;;;;;;5.96;100.00;94952.84;5132193;27;20458;-54
2022/01/05 03:06:35;;;;;;;1.27;0.60;;;;;;;5.90;100.00;94947.78;5131827;28;20422;-53
2022/01/05 03:09:05;;;;;;;4.97;1.73;;;;;;;5.90;100.00;94932.78;5133586;27;20414;-54
2022/01/05 03:11:34;;;;;;;0.30;0.20;;;;;;;5.76;100.00;94947.38;5136539;27;20782;-54
2022/01/05 03:14:02;;;;;;;0.67;0.67;;;;;;;5.80;100.00;94945.81;5136105;27;20418;-54
2022/01/05 03:16:31;;;;;;;0.87;0.87;;;;;;;5.73;100.00;94946.03;5136508;27;20430;-54
2022/01/05 03:18:59;;;;;;;1.67;0.60;;;;;;;5.90;100.00;94948.56;5135257;27;21006;-54
2022/01/05 03:21:27;;;;;;;0.30;0.20;;;;;;;5.94;100.00;94947.03;5135440;27;20422;-54
2022/01/05 03:23:56;;;;;;;1.90;1.23;;;;;;;6.14;100.00;94949.06;5135775;27;20461;-54
2022/01/05 03:26:26;;;;;;;3.80;1.23;;;;;;;6.11;100.00;94954.81;5135865;27;20422;-53
2022/01/05 03:28:54;;;;;;;0.30;0.30;;;;;;;6.08;100.00;94950.03;5135494;27;20450;-54
2022/01/05 03:31:23;;;;;;;0.40;0.30;;;;;;;6.08;100.00;94936.91;5135498;27;20491;-53
2022/01/05 03:33:51;;;;;;;0.80;0.57;;;;;;;6.12;100.00;94944.03;5136067;27;20426;-53
2022/01/05 03:36:20;;;;;;;0.53;0.50;;;;;;;6.10;100.00;94940.06;5135012;27;20434;-54
2022/01/05 03:38:48;;;;;;;0.60;0.30;;;;;;;5.53;100.00;94956.31;5135938;27;20863;-54
2022/01/05 03:41:17;;;;;;;0.43;0.40;;;;;;;4.81;100.00;94953.06;5135586;27;20422;-54
2022/01/05 03:43:47;;;;;;;3.37;1.50;;;;;;;4.84;100.00;94951.78;5135466;27;20415;-54
2022/01/05 03:46:16;;;;;;;1.40;1.40;;;;;;;4.86;100.00;94947.88;5135637;27;20879;-54
2022/01/05 03:48:44;;;;;;;1.17;1.07;;;;;;;4.93;100.00;94945.09;5134805;27;20435;-54
2022/01/05 03:51:13;;;;;;;0.40;0.30;;;;;;;4.88;100.00;94935.28;5135196;27;20426;-54
2022/01/05 03:53:41;;;;;;;0.30;0.20;;;;;;;5.04;100.00;94946.78;5134592;27;20469;-54
2022/01/05 03:56:10;;;;;;;0.43;0.40;;;;;;;5.06;100.00;94940.25;5135302;27;20466;-54
2022/01/05 03:58:38;;;;;;;5.90;0.70;;;;;;;4.83;100.00;94924.72;5134919;27;20480;-54
2022/01/05 04:01:08;;;;;;;0.40;0.40;;;;;;;4.72;100.00;94949.25;5135111;27;20482;-54
2022/01/05 04:03:37;;;;;;;0.67;0.67;;;;;;;4.73;100.00;94940.34;5135008;27;20445;-54
2022/01/05 04:06:06;;;;;;;0.30;0.20;;;;;;;4.25;100.00;94943.56;5135254;27;20426;-54
2022/01/05 04:08:34;;;;;;;0.70;0.70;;;;;;;3.99;100.00;94956.50;5135188;27;20419;-54
2022/01/05 04:11:02;;;;;;;2.63;0.90;;;;;;;4.16;100.00;94949.44;5134418;27;20422;-54
2022/01/05 04:13:31;;;;;;;0.40;0.40;;;;;;;4.42;100.00;94960.13;5135014;27;20479;-54
2022/01/05 04:15:59;;;;;;;0.97;0.97;;;;;;;4.65;100.00;94946.00;5134996;27;20438;-54
2022/01/05 04:18:29;;;;;;;0.30;0.20;;;;;;;4.43;100.00;94958.25;5134722;27;20886;-54
2022/01/05 04:20:58;;;;;;;1.50;1.50;;;;;;;4.55;100.00;94963.44;5133988;27;20439;-54
2022/01/05 04:23:26;;;;;;;0.90;0.60;;;;;;;4.38;100.00;94952.94;5134443;27;20465;-54
2022/01/05 04:25:55;;;;;;;1.63;1.60;;;;;;;4.26;100.00;94941.75;5134755;27;20484;-54
2022/01/05 04:28:23;;;;;;;1.07;1.07;;;;;;;4.53;100.00;94963.66;5134605;27;20461;-54
2022/01/05 04:30:52;;;;;;;0.43;0.40;;;;;;;4.65;100.00;94963.59;5134883;27;20481;-54
2022/01/05 04:33:20;;;;;;;0.73;0.70;;;;;;;4.40;100.00;94964.78;5134610;27;20430;-54
2022/01/05 04:36:10;;;;;;;0.40;0.40;;;;;;;4.71;100.00;94968.66;5134040;27;20435;-54
2022/01/05 04:38:39;;;;;;;0.60;0.60;;;;;;;4.55;100.00;94969.50;5134046;27;20486;-54
2022/01/05 04:41:07;;;;;;;0.63;0.63;;;;;;;4.57;100.00;94969.25;5133703;27;20439;-54
2022/01/05 04:43:36;;;;;;;0.97;0.93;;;;;;;3.01;100.00;94839.75;5134375;27;20423;-54
2022/01/05 04:46:04;;;;;;;0.30;0.20;;;;;;;4.13;100.00;94970.91;5133292;27;20426;-54
2022/01/05 04:48:33;;;;;;;0.70;0.70;;;;;;;3.56;100.00;94981.44;5134310;27;20427;-54
2022/01/05 04:51:02;;;;;;;1.00;1.00;;;;;;;3.91;100.00;94977.88;5134214;27;20427;-54
2022/01/05 04:53:32;;;;;;;1.03;1.03;;;;;;;4.00;100.00;94982.47;5134166;27;20438;-54
2022/01/05 04:56:01;;;;;;;1.23;1.23;;;;;;;4.04;100.00;94985.44;5134474;27;20426;-54
2022/01/05 04:58:30;;;;;;;0.50;0.47;;;;;;;3.96;100.00;94925.53;5133705;27;21031;-53
2022/01/05 05:00:59;;;;;;;3.13;3.03;;;;;;;4.23;100.00;94984.19;5133743;27;20505;-54
2022/01/05 05:03:28;;;;;;;1.37;1.27;;;;;;;4.23;100.00;94994.66;5133514;27;20442;-54
2022/01/05 05:05:56;;;;;;;2.20;2.10;;;;;;;3.45;100.00;94837.41;5133467;27;20430;-54
2022/01/05 05:08:24;;;;;;;0.50;0.50;;;;;;;4.25;100.00;94979.50;5134081;27;20550;-53
2022/01/05 05:10:54;;;;;;;2.67;2.47;;;;;;;4.20;100.00;95006.44;5133804;27;20796;-54
2022/01/05 05:13:22;;;;;;;1.17;1.03;;;;;;;4.40;100.00;95004.13;5133637;27;20497;-54
2022/01/05 05:15:51;;;;;;;2.53;2.40;;;;;;;3.52;100.00;94924.47;5133654;27;20427;-54
2022/01/05 05:18:19;;;;;;;1.40;1.30;;;;;;;4.05;100.00;95000.94;5132763;27;20422;-53
2022/01/05 05:20:48;;;;;;;1.30;0.83;;;;;;;3.82;100.00;94999.22;5133242;27;20518;-53
2022/01/05 05:23:17;;;;;;;1.63;1.53;;;;;;;3.91;100.00;95001.47;5133307;27;20940;-54
2022/01/05 05:25:45;;;;;;;2.67;2.57;;;;;;;3.47;100.00;94951.41;5133746;27;20958;-54
2022/01/05 05:28:15;;;;;;;3.17;1.27;;;;;;;3.96;100.00;95006.78;5132960;27;20427;-54
2022/01/05 05:30:44;;;;;;;1.10;1.07;;;;;;;4.12;100.00;95011.28;5133572;27;20439;-54
2022/01/05 05:33:13;;;;;;;0.60;0.60;;;;;;;3.93;100.00;94987.09;5131958;27;20504;-53
2022/01/05 05:35:42;;;;;;;0.50;0.50;;;;;;;3.90;100.00;94974.44;5133396;27;20426;-54
2022/01/05 05:38:12;;;;;;;1.37;1.27;;;;;;;3.90;100.00;94973.66;5133719;27;20426;-59
2022/01/05 05:40:41;;;;;;;0.53;0.53;;;;;;;3.95;100.00;94981.63;5133020;27;20470;-61
2022/01/05 05:43:10;;;;;;;2.00;1.50;;;;;;;4.02;100.00;95011.91;5132724;27;20891;-60
2022/01/05 05:45:40;;;;;;;0.63;0.60;;;;;;;4.05;100.00;95013.25;5132957;27;20934;-59
2022/01/05 05:48:09;;;;;;;0.60;0.60;;;;;;;3.81;100.00;95010.75;5132571;27;20438;-54
2022/01/05 05:50:37;;;;;;;0.30;0.20;;;;;;;3.48;100.00;95015.88;5132918;27;20434;-53
2022/01/05 05:53:06;;;;;;;0.67;0.67;;;;;;;3.97;100.00;95011.00;5132954;27;20418;-53
2022/01/05 05:55:39;;;;;;;2.63;0.67;;;;;;;4.39;100.00;95004.38;5133125;27;20426;-53
2022/01/05 05:58:08;;;;;;;4.03;2.30;;;;;;;4.36;100.00;94966.31;5132673;27;20487;-53
2022/01/05 06:00:36;;;;;;;1.07;1.07;;;;;;;4.44;100.00;95012.34;5131991;27;20487;-53
2022/01/05 06:03:06;;;;;;;0.63;0.63;;;;;;;4.21;100.00;95009.84;5132651;27;20422;-53
2022/01/05 06:05:35;;;;;;;0.83;0.83;;;;;;;3.91;100.00;95018.00;5132818;27;20433;-53
2022/01/05 06:08:04;;;;;;;0.30;0.30;;;;;;;3.23;100.00;94960.38;5132805;27;20990;-53
2022/01/05 06:10:32;;;;;;;0.87;0.87;;;;;;;3.26;100.00;94965.16;5132464;27;20491;-53
2022/01/05 06:13:01;;;;;;;2.53;2.37;;;;;;;3.98;100.00;95015.22;5132408;27;20477;-53
2022/01/05 06:15:34;;;;;;;2.50;1.77;;;;;;;3.69;100.00;95017.06;5132887;27;20495;-53
2022/01/05 06:18:03;;;;;;;2.73;2.63;;;;;;;3.77;100.00;95021.91;5132592;27;20435;-53
2022/01/05 06:20:32;;;;;;;2.50;1.07;;;;;;;3.22;100.00;94977.09;5132447;27;20994;-53
2022/01/05 06:23:01;;;;;;;2.40;2.30;;;;;;;3.56;100.00;95018.13;5132678;28;20894;-53
2022/01/05 06:25:29;;;;;;;0.77;0.77;;;;;;;3.75;100.00;95016.09;5132078;28;20495;-53
2022/01/05 06:27:57;;;;;;;3.13;3.03;;;;;;;4.19;100.00;95012.72;5132945;28;21015;-53
2022/01/05 06:30:26;;;;;;;1.37;1.07;;;;;;;4.70;100.00;95014.34;5132878;28;20431;-53
2022/01/05 06:32:54;;;;;;;1.27;1.27;;;;;;;4.62;100.00;95019.19;5132690;28;20443;-53
2022/01/05 06:35:25;;;;;;;1.50;1.40;;;;;;;4.88;100.00;95027.19;5132096;28;20435;-53
2022/01/05 06:37:55;;;;;;;3.53;1.13;;;;;;;5.03;100.00;95024.78;5132089;28;20418;-54
2022/01/05 06:40:23;;;;;;;2.30;2.03;;;;;;;4.96;100.00;95018.09;5132387;28;20474;-54
2022/01/05 06:42:52;;;;;;;1.20;1.20;;;;;;;5.10;100.00;95009.66;5132240;27;20840;-54
2022/01/05 06:45:21;;;;;;;0.60;0.60;;;;;;;5.20;100.00;95019.50;5136606;27;20430;-54
2022/01/05 06:47:49;;;;;;;1.13;1.13;;;;;;;5.61;100.00;95026.06;5136622;27;20493;-54
2022/01/05 06:50:18;;;;;;;2.93;2.73;;;;;;;6.05;100.00;95030.25;5136766;27;21042;-53
2022/01/05 06:52:47;;;;;;;2.63;2.47;;;;;;;6.17;100.00;95028.28;5136828;27;20474;-53
2022/01/05 06:55:16;;;;;;;6.83;6.43;;;;;;;5.82;100.00;94967.38;5135939;27;20469;-54
2022/01/05 06:57:45;;;;;;;6.50;5.90;;;;;;;6.69;100.00;95033.75;5136379;27;20422;-53
2022/01/05 07:00:14;;;;;;;6.73;5.40;;;;;;;7.12;97.08;95034.56;5135345;27;20525;-53
2022/01/05 07:02:43;;;;;;;9.83;4.67;;;;;;;7.30;92.97;95029.69;5136097;27;20418;-53
2022/01/05 07:05:11;;;;;;;4.87;4.50;;;;;;;7.53;92.39;95031.91;5135938;27;20438;-52
2022/01/05 07:07:40;;;;;;;4.93;4.13;;;;;;;7.69;89.72;95036.19;5136548;27;20828;-52
2022/01/05 07:10:10;;;;;;;5.17;4.77;;;;;;;7.95;84.37;94986.16;5136389;27;21099;-52
2022/01/05 07:12:41;;;;;;;5.00;4.63;;;;;;;8.49;82.47;95032.22;5136493;27;20422;-52
2022/01/05 07:15:11;;;;;;;9.93;7.40;;;;;;;8.45;80.30;95025.88;5136214;27;20438;-52
2022/01/05 07:17:40;;;;;;;6.70;6.33;;;;;;;8.40;82.74;95002.09;5136172;27;20491;-51
2022/01/05 07:20:10;;;;;;;15.57;6.43;;;;;;;9.06;80.47;95023.25;5135546;27;20478;-51
2022/01/05 07:22:38;;;;;;;7.47;6.03;;;;;;;9.64;73.71;95027.09;5136334;27;20453;-51
2022/01/05 07:25:07;;;;;;;8.90;7.90;;;;;;;8.85;69.47;94919.41;5135298;27;20466;-51
2022/01/05 07:27:36;;;;;;;9.00;5.27;;;;;;;9.82;68.17;95024.63;5135816;27;20450;-51
2022/01/05 07:30:08;;;;;;;8.73;4.43;;;;;;;9.37;64.83;94874.81;5135822;27;20434;-51
2022/01/05 07:32:36;;;;;;;5.70;5.20;;;;;;;9.35;67.52;94924.53;5135758;27;20463;-51
2022/01/05 07:35:06;;;;;;;2.70;2.13;;;;;;;10.57;63.12;94983.69;5135705;27;20431;-52
2022/01/05 07:37:35;;;;;;;2.63;2.53;;;;;;;11.06;60.28;95019.84;5135639;27;20942;-52
2022/01/05 07:40:06;;;;;;;8.37;4.20;;;;;;;10.61;60.95;95015.72;5135161;27;20502;-53
2022/01/05 07:42:35;;;;;;;5.60;4.33;;;;;;;10.39;61.96;94994.97;5135626;27;20434;-53
2022/01/05 07:45:07;;;;;;;2.30;2.20;;;;;;;10.93;61.33;95005.38;5135531;27;20427;-53
2022/01/05 07:47:36;;;;;;;3.77;2.20;;;;;;;11.21;58.13;95004.59;5135602;27;20431;-53
2022/01/05 07:50:09;;;;;;;2.73;2.37;;;;;;;11.21;58.53;94987.88;5135375;27;20487;-53
2022/01/05 07:52:38;;;;;;;2.40;2.30;;;;;;;10.93;58.63;94965.63;5135952;27;20481;-54
2022/01/05 07:55:10;;;;;;;2.80;2.70;;;;;;;6.75;55.05;94299.88;5134294;27;20499;-54
2022/01/05 07:57:42;;;;;;;4.40;4.10;;;;;;;11.67;54.17;94985.53;5135453;27;20430;-56
2022/01/05 08:00:13;;;;;;;4.77;4.47;;;;;;;11.54;55.51;95010.09;5134922;27;20474;-55
2022/01/05 08:02:42;;;;;;;1.30;1.30;;;;;;;12.44;52.70;95014.31;5135239;27;20834;-56
2022/01/05 08:05:11;;;;;;;3.07;1.67;;;;;;;12.31;52.42;95008.91;5135498;27;20427;-56
2022/01/05 08:07:39;;;;;;;2.03;1.93;;;;;;;11.63;52.67;94993.28;5135506;27;20475;-56
2022/01/05 08:10:08;;;;;;;1.97;1.33;;;;;;;11.98;52.76;95002.72;5135019;27;20943;-57
2022/01/05 08:12:37;;;;;;;3.50;3.23;;;;;;;12.17;51.47;95014.13;5134986;27;20426;-56
2022/01/05 08:15:06;;;;;;;5.33;2.73;;;;;;;12.14;51.25;95017.41;5135050;27;20491;-56
2022/01/05 08:17:38;;;;;;;1.90;1.70;;;;;;;11.62;53.03;95020.09;5134863;27;20950;-57
2022/01/05 08:20:10;;;;;;;2.10;1.90;;;;;;;12.10;52.30;95017.16;5134649;27;20509;-58
2022/01/05 08:22:41;;;;;;;6.47;2.23;;;;;;;11.58;52.10;95019.09;5135133;27;20431;-58
2022/01/05 08:25:10;;;;;;;0.70;0.70;;;;;;;11.97;51.43;95019.72;5134478;27;20834;-58
2022/01/05 08:27:45;;;;;;;8.70;2.00;;;;;;;12.45;49.42;95005.25;5134619;27;20419;-57
2022/01/05 08:30:16;;;;;;;2.80;2.53;;;;;;;12.50;48.77;95021.13;5134809;27;20475;-57
2022/01/05 08:32:46;;;;;;;1.83;1.27;;;;;;;13.00;48.27;95022.25;5134579;27;20471;-57
2022/01/05 08:35:16;;;;;;;1.47;0.80;;;;;;;13.70;47.04;95008.78;5134380;27;20977;-57
2022/01/05 08:37:46;;;;;;;1.43;0.60;;;;;;;14.72;44.42;94992.25;5134259;27;20422;-57
2022/01/05 08:40:16;;;;;;;2.83;2.00;;;;;;;14.27;45.93;95015.34;5133445;27;20521;-57
2022/01/05 08:42:45;;;;;;;1.90;1.80;;;;;;;13.61;44.77;94928.78;5134241;27;20539;-57
2022/01/05 08:45:15;;;;;;;1.07;1.07;;;;;;;14.01;46.00;95015.84;5134108;27;20426;-56
2022/01/05 08:47:48;;;;;;;1.07;0.80;;;;;;;14.26;46.09;95005.78;5134269;27;20499;-56
2022/01/05 08:50:18;;;;;;;3.23;2.97;;;;;;;13.92;45.57;94998.19;5133968;27;20790;-57
2022/01/05 08:52:47;;;;;;;2.07;1.97;;;;;;;14.11;45.53;95006.09;5133915;27;20434;-55
2022/01/05 08:55:18;;;;;;;4.30;3.90;;;;;;;14.18;44.53;94990.47;5133952;27;20427;-55
2022/01/05 08:57:47;;;;;;;2.30;2.20;;;;;;;13.24;44.27;94836.63;5133934;27;20513;-54
2022/01/05 09:00:17;;;;;;;5.27;2.73;;;;;;;14.61;43.67;94989.81;5133364;27;20423;-55
2022/01/05 09:02:47;;;;;;;5.73;1.57;;;;;;;14.66;43.59;94993.44;5134104;27;20480;-54
2022/01/05 09:05:17;;;;;;;8.67;1.70;;;;;;;15.77;42.79;94989.56;5133619;27;20434;-53
2022/01/05 09:07:47;;;;;;;1.00;1.00;;;;;;;15.63;41.72;94988.88;5133205;27;20483;-54
2022/01/05 09:10:15;;;;;;;1.70;1.60;;;;;;;16.12;40.44;94962.91;5133449;27;20435;-54
2022/01/05 09:12:45;;;;;;;7.50;1.37;;;;;;;15.24;42.38;94981.59;5132993;27;20411;-54
2022/01/05 09:15:13;;;;;;;3.90;3.60;;;;;;;16.33;41.41;94990.63;5132371;27;20430;-54
2022/01/05 09:17:42;;;;;;;1.93;1.67;;;;;;;15.87;40.90;94975.91;5133909;27;20426;-54
2022/01/05 09:20:12;;;;;;;4.60;2.40;;;;;;;16.46;40.35;94982.47;5133564;27;20457;-54
2022/01/05 09:22:41;;;;;;;2.50;2.33;;;;;;;15.55;41.81;94986.97;5133806;27;20463;-54
2022/01/05 09:25:11;;;;;;;2.60;1.30;;;;;;;15.77;42.36;94973.53;5133440;27;20435;-54
2022/01/05 09:27:40;;;;;;;2.53;2.37;;;;;;;15.97;41.20;94979.38;5133516;27;20887;-54
2022/01/05 09:30:11;;;;;;;2.33;2.23;;;;;;;16.61;40.54;94967.06;5133284;27;20430;-54
2022/01/05 09:32:41;;;;;;;1.57;1.20;;;;;;;16.96;39.27;94939.16;5133481;27;20963;-54
2022/01/05 09:35:13;;;;;;;1.10;1.03;;;;;;;17.62;38.54;94961.84;5133640;27;20431;-54
2022/01/05 09:37:52;;;;;;;2.80;1.00;;;;;;;18.19;38.67;94946.13;5133751;27;20414;-54
2022/01/05 09:43:07;;;;;;;0.70;0.60;;;;;;;20.10;34.76;94940.09;5109760;27;20466;-54
2022/01/05 09:45:38;;;;;;;1.10;0.73;;;;;;;19.06;34.94;94949.69;5133070;27;21011;-55
2022/01/05 09:48:26;;;;;;;0.70;0.70;;;;;;;18.22;37.69;94940.06;5132975;27;20483;-55
2022/01/05 09:50:58;;;;;;;14.73;2.20;;;;;;;19.08;36.18;94929.44;5132903;27;20438;-55
2022/01/05 09:53:32;;;;;;;4.90;2.90;;;;;;;18.30;36.67;94939.25;5132720;27;20924;-55
2022/01/05 09:56:21;;;;;;;1.53;1.07;;;;;;;19.40;35.87;94928.66;5132874;27;20521;-53
2022/01/05 09:58:50;;;;;;;1.00;0.63;;;;;;;19.72;35.66;94918.94;5132925;27;20430;-54
2022/01/05 10:01:18;;;;;;;1.00;1.00;;;;;;;18.21;36.57;94923.22;5132780;27;20542;-55
2022/01/05 10:03:47;;;;;;;1.40;1.30;;;;;;;18.30;37.40;94897.09;5133366;27;20471;-53
2022/01/05 10:06:16;;;;;;;2.43;1.57;;;;;;;18.93;36.33;94909.38;5132801;27;20848;-55
2022/01/05 10:08:46;;;;;;;5.80;1.50;;;;;;;19.35;35.38;94903.88;5132840;27;20471;-51
2022/01/05 10:11:14;;;;;;;1.60;1.50;;;;;;;19.73;35.54;94874.78;5132618;27;20439;-52
2022/01/05 10:13:42;;;;;;;2.87;2.10;;;;;;;20.45;34.17;94887.34;5132659;27;20542;-53
2022/01/05 10:16:11;;;;;;;2.03;1.93;;;;;;;21.10;33.49;94888.00;5132879;27;20438;-52
2022/01/05 10:18:41;;;;;;;6.73;1.87;;;;;;;20.39;33.70;94877.94;5131927;27;20423;-52
2022/01/05 10:21:11;;;;;;;1.93;1.50;;;;;;;20.46;33.13;94828.91;5131680;27;20474;-53
2022/01/05 10:23:42;;;;;;;1.33;1.23;;;;;;;20.96;33.76;94874.91;5132328;27;20474;-53
2022/01/05 10:26:40;;;;;;;5.80;2.27;;;;;;;21.30;32.27;94868.88;5132563;28;20511;-52
2022/01/05 10:29:15;;;;;;;1.80;1.70;;;;;;;21.06;33.59;94855.56;5085972;28;20445;-52
2022/01/05 10:31:45;;;;;;;2.50;2.30;;;;;;;21.67;33.64;94860.50;5132409;28;20419;-52
2022/01/05 10:34:18;;;;;;;2.33;1.83;;;;;;;20.85;32.39;94857.66;5132520;28;20423;-52
2022/01/05 10:36:48;;;;;;;2.10;2.00;;;;;;;20.48;32.77;94815.88;5132357;28;20456;-52
2022/01/05 10:39:20;;;;;;;1.13;1.13;;;;;;;21.86;32.99;94849.81;5132514;28;20430;-53
2022/01/05 10:41:49;;;;;;;0.70;0.70;;;;;;;22.33;31.59;94847.75;5132295;28;20472;-53
2022/01/05 10:44:19;;;;;;;1.00;1.00;;;;;;;22.23;32.49;94845.63;5131941;28;20434;-53
2022/01/05 10:46:51;;;;;;;1.23;1.10;;;;;;;20.89;32.12;94842.38;5132465;28;20919;-53
2022/01/05 10:49:28;;;;;;;1.93;1.20;;;;;;;21.23;32.11;94835.56;5132659;27;20435;-53
2022/01/05 10:51:58;;;;;;;2.00;1.10;;;;;;;21.95;31.12;94826.91;5132628;28;20433;-53
2022/01/05 10:54:29;;;;;;;2.93;2.47;;;;;;;21.30;32.13;94833.81;5132312;27;20468;-53
2022/01/05 10:57:10;;;;;;;7.53;2.10;;;;;;;21.18;32.15;94823.13;5132309;27;20430;-54
2022/01/05 10:59:42;;;;;;;1.83;0.93;;;;;;;20.52;33.93;94822.13;5132709;28;20422;-54
2022/01/05 11:02:27;;;;;;;0.93;0.80;;;;;;;21.19;32.88;94823.94;5132297;28;21066;-53
2022/01/05 11:05:11;;;;;;;1.30;1.20;;;;;;;21.00;32.81;94827.25;5132476;28;20419;-54
2022/01/05 11:07:42;;;;;;;0.93;0.93;;;;;;;21.77;31.89;94814.91;5131823;28;20491;-54
2022/01/05 11:10:12;;;;;;;1.80;1.70;;;;;;;22.66;30.12;94804.84;5132292;28;20426;-53
2022/01/05 11:12:44;;;;;;;1.77;1.67;;;;;;;21.71;31.96;94799.34;5132020;28;20454;-54
2022/01/05 11:15:30;;;;;;;15.70;1.37;;;;;;;21.76;31.28;94799.06;5131840;28;20805;-54
2022/01/05 11:18:10;;;;;;;0.83;0.63;;;;;;;22.36;31.16;94794.97;5132476;28;20479;-54
2022/01/05 11:20:42;;;;;;;1.80;0.97;;;;;;;23.05;29.91;94796.66;5131889;28;20426;-51
2022/01/05 11:23:11;;;;;;;3.23;1.30;;;;;;;23.42;29.66;94789.59;5131935;28;20512;-52
2022/01/05 11:25:42;;;;;;;1.10;1.10;;;;;;;23.27;29.98;94791.25;5132266;27;20427;-53
2022/01/05 11:28:13;;;;;;;0.43;0.40;;;;;;;22.66;29.96;94785.94;5132200;28;20479;-53
2022/01/05 11:30:43;;;;;;;2.90;0.80;;;;;;;22.32;30.51;94786.78;5134456;27;20438;-53
2022/01/05 11:33:12;;;;;;;0.60;0.60;;;;;;;21.92;31.06;94787.13;5135591;27;20419;-53
2022/01/05 11:35:42;;;;;;;1.10;0.60;;;;;;;22.54;31.11;94779.91;5135759;27;20483;-52
2022/01/05 11:38:11;;;;;;;0.57;0.40;;;;;;;22.71;30.18;94774.84;5135895;27;20771;-53
2022/01/05 11:40:46;;;;;;;0.80;0.70;;;;;;;23.33;30.47;94767.38;5135806;27;20934;-53
2022/01/05 11:43:22;;;;;;;0.50;0.40;;;;;;;23.63;28.83;94765.53;5135578;27;20529;-53
2022/01/05 11:45:51;;;;;;;1.20;0.83;;;;;;;22.57;30.44;94757.56;5135394;27;20434;-53
2022/01/05 11:48:28;;;;;;;1.20;1.10;;;;;;;23.08;31.22;94761.56;5135589;27;20431;-53
2022/01/05 11:50:57;;;;;;;0.70;0.70;;;;;;;23.80;30.00;94758.81;5135801;27;20430;-53